Terminal Aerodrome Forecast
Issued by NWS

Home | Current Version | Previous Version | Text Only | Print | Product List | Glossary On
Versions: 1 2 3 4 5 6 7 8 9 10 11 12 13 14 15 16 17 18 19 20 21 22 23 24 25 26 27
234
FTUS43 KDVN 270510 AAD
TAFCID
TAF AMD
KCID 270510Z 2705/2724 VRB02KT 1/2SM FG SCT002
      TEMPO 2706/2710 1/4SM FG VV002
     FM271400 12006KT 6SM BR SCT040
     FM272100 12009KT P6SM VCTS BKN050CB=

USA.gov is the U.S. government's official web portal to all federal, state and local government web resources and services.